YPDNWPDL

Guest
Details From YPDN - Darwin Intl
To WPDL - Dili Presidente Nicolau Lobato Intl
Flight Number -
Tags generated
Created
Modified
Stats Distance 393 nm / 728 km
Max Altitude 26,900 ft / 8,199 m
Waypoints 4
Social Downloads 3
Likes 0
Share VATSIM

Download

Looking for another format? Having issues loading an existing format? Contact us
Advertisement - Login to hide

Notes

Basic altitude profile: - Ascent Rate: 2500ft/min - Ascent Speed: 250kts - Cruise Altitude: 340ft - Cruise Speed: 400kts - Descent Rate: 1500ft/min - Descent Speed: 250kts Options: - Use NATs: yes - Use PACOTS: yes - Use low airways: no - Use high airways: yes

Route

YPDN JULIE Z69 SELVA WPDL

ID Type Via Altitude Latitude Longitude Leg Dist Tot Dist Heading (true) Name
O YPDN APT - 0 ft / 0 m -12.41506˚ 130.87528˚ - 0 nm - Darwin Intl
JULIE FIX - 26,900 ft / 8,199 m -11.79611˚ 129.70361˚ 78 nm 78 nm 298° / 299° -
SELVA FIX Z69 (AWY-HI) 18,700 ft / 5,700 m -9.45167˚ 126.68000˚ 227 nm 305 nm 308° / 309° -
O WPDL APT - 0 ft / 0 m -8.54655˚ 125.52472˚ 87 nm 392 nm 308° / 309° Dili Presidente Nicolau Lobato Intl

Altitude Profile

Advertisement - Login to hide

Weather


0- 5 10 15 20 25 30 35+ Temperature / ° C

Clouds and Precipitation
Forecast for 2017-12-12 12:00 UTC. Updated an hour ago

Ground ~20,000 ft ~40,000 ft Winds

YPDN

Details ICAO YPDN (DRW)
Name Darwin Intl
Region Australia
Timezone Australia/Darwin (UTC+9.5)
Stats Elevation 102 ft / 31 m (AMSL)
Location -12.415064° 130.875278°
Runways 2
Magnetic Variation 2.670° E

METAR

YPDN 121200Z 28002KT 9999 FEW022 SCT055 BKN300 30/26 Q1008 NOSIG

Decode

TAF

TAF YPDN 121113Z 1212/1318 33005KT 9999 FEW025 FM130200 30014KT 9999 SCT035 FM131000 25006KT 9999 FEW025 TEMPO 1212/1217 VRB25G40KT 1000 TSRA BKN010 SCT020CB PROB30 TEMPO 1306/1312 VRB25G40KT 1000 TSRA BKN010 SCT020CB

Decode

Departure Runways

ID Width Length Bearing (true) Bearing (mag) Surface Threshold Offset Overrun Length
11 197 ft / 60 m 10,997 ft / 3,352 m 109.02° 106.35° Asphalt 0 ft / 0 m 0 ft / 0 m
18 98 ft / 30 m 5,029 ft / 1,533 m 179.85° 177.18° Asphalt 0 ft / 0 m 0 ft / 0 m
29 197 ft / 60 m 10,997 ft / 3,352 m 289.02° 286.35° Asphalt 0 ft / 0 m 0 ft / 0 m
36 98 ft / 30 m 5,029 ft / 1,533 m 359.85° 357.18° Asphalt 0 ft / 0 m 0 ft / 0 m

WPDL

Details ICAO WPDL (DIL)
Name Dili Presidente Nicolau Lobato Intl
Region Timor-Leste
Timezone Unknown (UTC+0.0)
Stats Elevation 25 ft / 8 m (AMSL)
Location -8.546553° 125.524721°
Runways 1
Magnetic Variation 1.512° E

METAR

Not found

TAF

TAF TAF WPDL 120702Z 1208/1220 33007KT 9999 SCT030 FM120900 15005KT 9999 SCT040

Decode

Destination Runways

ID Width Length Bearing (true) Bearing (mag) Surface Threshold Offset Overrun Length
08 98 ft / 30 m 6,062 ft / 1,848 m 77.11° 75.60° Asphalt 201 ft / 61 m 100 ft / 30 m
26 98 ft / 30 m 6,062 ft / 1,848 m 257.11° 255.60° Asphalt 0 ft / 0 m 100 ft / 30 m

Popular Alternatives